sensor_id;sensor_type;location;lat;lon;timestamp;temperature;humidity
23499;DHT22;11926;48.120;11.562;2023-03-12T00:00:59;2.10;73.80
23499;DHT22;11926;48.120;11.562;2023-03-12T00:03:48;2.10;73.70
23499;DHT22;11926;48.120;11.562;2023-03-12T00:06:36;2.00;74.60
23499;DHT22;11926;48.120;11.562;2023-03-12T00:09:23;2.00;74.00
23499;DHT22;11926;48.120;11.562;2023-03-12T00:12:11;2.00;74.20
23499;DHT22;11926;48.120;11.562;2023-03-12T00:14:58;1.90;74.20
23499;DHT22;11926;48.120;11.562;2023-03-12T00:17:48;1.90;74.40
23499;DHT22;11926;48.120;11.562;2023-03-12T00:20:35;1.90;74.50
23499;DHT22;11926;48.120;11.562;2023-03-12T00:23:23;1.80;74.80
23499;DHT22;11926;48.120;11.562;2023-03-12T00:26:12;1.90;75.20
23499;DHT22;11926;48.120;11.562;2023-03-12T00:29:00;2.00;75.50
23499;DHT22;11926;48.120;11.562;2023-03-12T00:31:47;2.00;75.40
23499;DHT22;11926;48.120;11.562;2023-03-12T00:34:38;2.00;75.30
23499;DHT22;11926;48.120;11.562;2023-03-12T00:37:25;1.90;75.20
23499;DHT22;11926;48.120;11.562;2023-03-12T00:40:13;1.90;75.20
23499;DHT22;11926;48.120;11.562;2023-03-12T00:43:00;1.80;75.50
23499;DHT22;11926;48.120;11.562;2023-03-12T00:45:48;1.70;75.50
23499;DHT22;11926;48.120;11.562;2023-03-12T00:48:35;1.70;75.80
23499;DHT22;11926;48.120;11.562;2023-03-12T00:51:24;1.60;76.10
23499;DHT22;11926;48.120;11.562;2023-03-12T00:54:12;1.50;77.10
23499;DHT22;11926;48.120;11.562;2023-03-12T00:56:59;1.50;76.40
23499;DHT22;11926;48.120;11.562;2023-03-12T00:59:47;1.40;76.50
23499;DHT22;11926;48.120;11.562;2023-03-12T01:02:34;1.30;76.70
23499;DHT22;11926;48.120;11.562;2023-03-12T01:05:22;1.30;76.80
23499;DHT22;11926;48.120;11.562;2023-03-12T01:08:11;1.30;77.00
23499;DHT22;11926;48.120;11.562;2023-03-12T01:10:59;1.30;77.20
23499;DHT22;11926;48.120;11.562;2023-03-12T01:13:46;1.20;77.40
23499;DHT22;11926;48.120;11.562;2023-03-12T01:16:35;1.30;77.60
23499;DHT22;11926;48.120;11.562;2023-03-12T01:19:22;1.30;77.60
23499;DHT22;11926;48.120;11.562;2023-03-12T01:22:10;1.30;77.40
23499;DHT22;11926;48.120;11.562;2023-03-12T01:24:59;1.30;77.60
23499;DHT22;11926;48.120;11.562;2023-03-12T01:27:47;1.30;77.60
23499;DHT22;11926;48.120;11.562;2023-03-12T01:30:35;1.30;77.60
23499;DHT22;11926;48.120;11.562;2023-03-12T01:33:25;1.30;77.90
23499;DHT22;11926;48.120;11.562;2023-03-12T01:36:16;1.40;78.50
23499;DHT22;11926;48.120;11.562;2023-03-12T01:39:04;1.50;78.40
23499;DHT22;11926;48.120;11.562;2023-03-12T01:41:52;1.60;78.30
23499;DHT22;11926;48.120;11.562;2023-03-12T01:44:56;1.70;78.40
23499;DHT22;11926;48.120;11.562;2023-03-12T01:47:46;1.80;78.40
23499;DHT22;11926;48.120;11.562;2023-03-12T01:50:33;1.90;78.40
23499;DHT22;11926;48.120;11.562;2023-03-12T01:53:23;2.00;78.30
23499;DHT22;11926;48.120;11.562;2023-03-12T01:56:12;2.00;78.00
23499;DHT22;11926;48.120;11.562;2023-03-12T01:59:08;2.10;78.40
23499;DHT22;11926;48.120;11.562;2023-03-12T02:01:57;2.20;78.40
23499;DHT22;11926;48.120;11.562;2023-03-12T02:04:46;2.20;78.40
23499;DHT22;11926;48.120;11.562;2023-03-12T02:07:34;2.20;78.00
23499;DHT22;11926;48.120;11.562;2023-03-12T02:10:22;2.20;78.00
23499;DHT22;11926;48.120;11.562;2023-03-12T02:13:11;2.30;77.90
23499;DHT22;11926;48.120;11.562;2023-03-12T02:16:04;2.30;77.70
23499;DHT22;11926;48.120;11.562;2023-03-12T02:18:53;2.30;77.50
23499;DHT22;11926;48.120;11.562;2023-03-12T02:21:42;2.20;78.30
23499;DHT22;11926;48.120;11.562;2023-03-12T02:24:34;2.20;77.50
23499;DHT22;11926;48.120;11.562;2023-03-12T02:27:26;2.10;77.40
23499;DHT22;11926;48.120;11.562;2023-03-12T02:30:14;2.10;77.50
23499;DHT22;11926;48.120;11.562;2023-03-12T02:33:06;2.10;77.50
23499;DHT22;11926;48.120;11.562;2023-03-12T02:35:54;2.00;77.60
23499;DHT22;11926;48.120;11.562;2023-03-12T02:38:44;1.90;77.50
23499;DHT22;11926;48.120;11.562;2023-03-12T02:41:36;1.90;77.60
23499;DHT22;11926;48.120;11.562;2023-03-12T02:44:27;1.80;77.60
23499;DHT22;11926;48.120;11.562;2023-03-12T02:47:16;1.80;77.70
23499;DHT22;11926;48.120;11.562;2023-03-12T02:50:05;1.70;77.80
23499;DHT22;11926;48.120;11.562;2023-03-12T02:52:53;1.70;78.00
23499;DHT22;11926;48.120;11.562;2023-03-12T02:55:40;1.60;78.00
23499;DHT22;11926;48.120;11.562;2023-03-12T02:58:28;1.60;78.20
23499;DHT22;11926;48.120;11.562;2023-03-12T03:01:18;1.60;78.40
23499;DHT22;11926;48.120;11.562;2023-03-12T03:04:08;1.60;78.60
23499;DHT22;11926;48.120;11.562;2023-03-12T03:06:56;1.60;78.60
23499;DHT22;11926;48.120;11.562;2023-03-12T03:09:43;1.70;78.80
23499;DHT22;11926;48.120;11.562;2023-03-12T03:12:31;1.70;78.80
23499;DHT22;11926;48.120;11.562;2023-03-12T03:15:19;1.70;79.00
23499;DHT22;11926;48.120;11.562;2023-03-12T03:18:08;1.70;79.00
23499;DHT22;11926;48.120;11.562;2023-03-12T03:20:55;1.70;79.10
23499;DHT22;11926;48.120;11.562;2023-03-12T03:23:44;1.80;79.20
23499;DHT22;11926;48.120;11.562;2023-03-12T03:26:31;1.80;79.20
23499;DHT22;11926;48.120;11.562;2023-03-12T03:29:19;1.80;79.30
23499;DHT22;11926;48.120;11.562;2023-03-12T03:32:07;1.90;80.30
23499;DHT22;11926;48.120;11.562;2023-03-12T03:34:55;1.90;79.60
23499;DHT22;11926;48.120;11.562;2023-03-12T03:37:43;1.90;79.60
23499;DHT22;11926;48.120;11.562;2023-03-12T03:40:31;1.90;79.80
23499;DHT22;11926;48.120;11.562;2023-03-12T03:43:18;1.90;79.90
23499;DHT22;11926;48.120;11.562;2023-03-12T03:46:06;2.00;80.10
23499;DHT22;11926;48.120;11.562;2023-03-12T03:48:56;2.00;80.20
23499;DHT22;11926;48.120;11.562;2023-03-12T03:51:46;2.10;80.40
23499;DHT22;11926;48.120;11.562;2023-03-12T03:54:39;2.10;80.50
23499;DHT22;11926;48.120;11.562;2023-03-12T03:57:27;2.10;80.60
23499;DHT22;11926;48.120;11.562;2023-03-12T04:00:15;2.20;80.80
23499;DHT22;11926;48.120;11.562;2023-03-12T04:03:06;2.20;80.80
23499;DHT22;11926;48.120;11.562;2023-03-12T04:05:54;2.30;81.10
23499;DHT22;11926;48.120;11.562;2023-03-12T04:08:45;2.30;81.10
23499;DHT22;11926;48.120;11.562;2023-03-12T04:11:34;2.30;81.20
23499;DHT22;11926;48.120;11.562;2023-03-12T04:14:23;2.30;81.30
23499;DHT22;11926;48.120;11.562;2023-03-12T04:17:11;2.30;81.50
23499;DHT22;11926;48.120;11.562;2023-03-12T04:19:59;2.30;81.60
23499;DHT22;11926;48.120;11.562;2023-03-12T04:22:47;2.40;82.70
23499;DHT22;11926;48.120;11.562;2023-03-12T04:25:37;2.40;81.90
23499;DHT22;11926;48.120;11.562;2023-03-12T04:28:24;2.40;82.10
23499;DHT22;11926;48.120;11.562;2023-03-12T04:31:12;2.50;82.20
23499;DHT22;11926;48.120;11.562;2023-03-12T04:34:06;2.50;82.30
23499;DHT22;11926;48.120;11.562;2023-03-12T04:36:54;2.50;82.40
23499;DHT22;11926;48.120;11.562;2023-03-12T04:39:42;2.60;82.70
23499;DHT22;11926;48.120;11.562;2023-03-12T04:42:33;2.60;82.90
23499;DHT22;11926;48.120;11.562;2023-03-12T04:45:21;2.60;83.00
23499;DHT22;11926;48.120;11.562;2023-03-12T04:48:08;2.70;83.10
23499;DHT22;11926;48.120;11.562;2023-03-12T04:50:55;2.60;83.20
23499;DHT22;11926;48.120;11.562;2023-03-12T04:53:43;2.70;83.30
23499;DHT22;11926;48.120;11.562;2023-03-12T04:56:33;2.70;83.50
23499;DHT22;11926;48.120;11.562;2023-03-12T04:59:22;2.70;83.50
23499;DHT22;11926;48.120;11.562;2023-03-12T05:02:09;2.80;83.70
23499;DHT22;11926;48.120;11.562;2023-03-12T05:04:58;2.80;84.60
23499;DHT22;11926;48.120;11.562;2023-03-12T05:07:46;2.80;83.90
23499;DHT22;11926;48.120;11.562;2023-03-12T05:10:34;2.80;84.10
23499;DHT22;11926;48.120;11.562;2023-03-12T05:13:22;2.80;84.20
23499;DHT22;11926;48.120;11.562;2023-03-12T05:16:16;2.80;84.20
23499;DHT22;11926;48.120;11.562;2023-03-12T05:19:04;2.80;84.30
23499;DHT22;11926;48.120;11.562;2023-03-12T05:21:52;2.80;84.40
23499;DHT22;11926;48.120;11.562;2023-03-12T05:24:40;2.80;84.60
23499;DHT22;11926;48.120;11.562;2023-03-12T05:27:27;2.80;84.70
23499;DHT22;11926;48.120;11.562;2023-03-12T05:30:17;2.80;84.80
23499;DHT22;11926;48.120;11.562;2023-03-12T05:33:06;2.80;85.90
23499;DHT22;11926;48.120;11.562;2023-03-12T05:35:53;2.80;85.20
23499;DHT22;11926;48.120;11.562;2023-03-12T05:38:41;2.90;85.40
23499;DHT22;11926;48.120;11.562;2023-03-12T05:41:32;2.90;85.50
23499;DHT22;11926;48.120;11.562;2023-03-12T05:44:26;2.90;85.50
23499;DHT22;11926;48.120;11.562;2023-03-12T05:47:13;2.90;85.60
23499;DHT22;11926;48.120;11.562;2023-03-12T05:50:03;3.00;85.80
23499;DHT22;11926;48.120;11.562;2023-03-12T05:52:51;3.00;85.80
23499;DHT22;11926;48.120;11.562;2023-03-12T05:55:39;3.10;86.10
23499;DHT22;11926;48.120;11.562;2023-03-12T05:58:26;3.10;86.10
23499;DHT22;11926;48.120;11.562;2023-03-12T06:01:17;3.10;86.10
23499;DHT22;11926;48.120;11.562;2023-03-12T06:04:06;3.20;86.20
23499;DHT22;11926;48.120;11.562;2023-03-12T06:06:55;3.30;86.40
23499;DHT22;11926;48.120;11.562;2023-03-12T06:09:43;3.40;86.40
23499;DHT22;11926;48.120;11.562;2023-03-12T06:12:32;3.40;86.20
23499;DHT22;11926;48.120;11.562;2023-03-12T06:15:19;3.50;86.30
23499;DHT22;11926;48.120;11.562;2023-03-12T06:18:07;3.50;86.30
23499;DHT22;11926;48.120;11.562;2023-03-12T06:20:54;3.60;86.30
23499;DHT22;11926;48.120;11.562;2023-03-12T06:23:43;3.60;86.20
23499;DHT22;11926;48.120;11.562;2023-03-12T06:26:38;3.70;86.20
23499;DHT22;11926;48.120;11.562;2023-03-12T06:29:25;3.70;86.10
23499;DHT22;11926;48.120;11.562;2023-03-12T06:32:13;3.80;86.10
23499;DHT22;11926;48.120;11.562;2023-03-12T06:35:01;3.80;86.00
23499;DHT22;11926;48.120;11.562;2023-03-12T06:37:50;3.80;86.00
23499;DHT22;11926;48.120;11.562;2023-03-12T06:40:39;3.90;86.10
23499;DHT22;11926;48.120;11.562;2023-03-12T06:43:28;4.00;86.20
23499;DHT22;11926;48.120;11.562;2023-03-12T06:46:18;4.10;86.10
23499;DHT22;11926;48.120;11.562;2023-03-12T06:49:07;4.20;86.90
23499;DHT22;11926;48.120;11.562;2023-03-12T06:51:54;4.30;85.90
23499;DHT22;11926;48.120;11.562;2023-03-12T06:54:42;4.30;85.80
23499;DHT22;11926;48.120;11.562;2023-03-12T06:57:31;4.40;85.80
23499;DHT22;11926;48.120;11.562;2023-03-12T07:00:19;4.40;85.80
23499;DHT22;11926;48.120;11.562;2023-03-12T07:03:06;4.40;86.10
23499;DHT22;11926;48.120;11.562;2023-03-12T07:05:56;4.50;86.30
23499;DHT22;11926;48.120;11.562;2023-03-12T07:08:45;4.50;86.50
23499;DHT22;11926;48.120;11.562;2023-03-12T07:11:33;4.60;86.70
23499;DHT22;11926;48.120;11.562;2023-03-12T07:14:23;4.70;86.80
23499;DHT22;11926;48.120;11.562;2023-03-12T07:17:10;4.70;86.70
23499;DHT22;11926;48.120;11.562;2023-03-12T07:19:58;4.70;87.00
23499;DHT22;11926;48.120;11.562;2023-03-12T07:22:45;4.80;87.30
23499;DHT22;11926;48.120;11.562;2023-03-12T07:25:34;4.90;87.50
23499;DHT22;11926;48.120;11.562;2023-03-12T07:28:23;4.90;87.70
23499;DHT22;11926;48.120;11.562;2023-03-12T07:31:11;4.90;88.00
23499;DHT22;11926;48.120;11.562;2023-03-12T07:33:59;5.00;88.30
23499;DHT22;11926;48.120;11.562;2023-03-12T07:36:48;5.10;88.50
23499;DHT22;11926;48.120;11.562;2023-03-12T07:39:36;5.20;88.70
23499;DHT22;11926;48.120;11.562;2023-03-12T07:42:24;5.30;88.70
23499;DHT22;11926;48.120;11.562;2023-03-12T07:45:14;5.50;88.60
23499;DHT22;11926;48.120;11.562;2023-03-12T07:48:04;5.60;88.50
23499;DHT22;11926;48.120;11.562;2023-03-12T07:50:51;5.70;88.70
23499;DHT22;11926;48.120;11.562;2023-03-12T07:53:38;5.90;88.80
23499;DHT22;11926;48.120;11.562;2023-03-12T07:56:26;6.00;88.60
23499;DHT22;11926;48.120;11.562;2023-03-12T07:59:13;6.10;88.50
23499;DHT22;11926;48.120;11.562;2023-03-12T08:02:01;6.10;88.40
23499;DHT22;11926;48.120;11.562;2023-03-12T08:04:51;6.10;88.40
23499;DHT22;11926;48.120;11.562;2023-03-12T08:07:38;6.10;88.40
23499;DHT22;11926;48.120;11.562;2023-03-12T08:10:25;6.10;88.20
23499;DHT22;11926;48.120;11.562;2023-03-12T08:13:13;6.10;88.40
23499;DHT22;11926;48.120;11.562;2023-03-12T08:16:01;6.10;88.60
23499;DHT22;11926;48.120;11.562;2023-03-12T08:18:49;6.10;88.60
23499;DHT22;11926;48.120;11.562;2023-03-12T08:21:38;6.20;88.80
23499;DHT22;11926;48.120;11.562;2023-03-12T08:24:25;6.30;88.60
23499;DHT22;11926;48.120;11.562;2023-03-12T08:27:13;6.30;88.60
23499;DHT22;11926;48.120;11.562;2023-03-12T08:30:00;6.30;89.80
23499;DHT22;11926;48.120;11.562;2023-03-12T08:32:48;6.30;89.20
23499;DHT22;11926;48.120;11.562;2023-03-12T08:35:36;6.30;89.90
23499;DHT22;11926;48.120;11.562;2023-03-12T08:38:25;6.30;89.20
23499;DHT22;11926;48.120;11.562;2023-03-12T08:41:12;6.20;89.20
23499;DHT22;11926;48.120;11.562;2023-03-12T08:44:00;6.20;89.60
23499;DHT22;11926;48.120;11.562;2023-03-12T08:46:47;6.30;89.70
23499;DHT22;11926;48.120;11.562;2023-03-12T08:49:35;6.30;89.80
23499;DHT22;11926;48.120;11.562;2023-03-12T08:52:22;6.40;90.00
23499;DHT22;11926;48.120;11.562;2023-03-12T08:55:11;6.40;90.00
23499;DHT22;11926;48.120;11.562;2023-03-12T08:57:59;6.50;90.10
23499;DHT22;11926;48.120;11.562;2023-03-12T09:00:47;6.60;90.20
23499;DHT22;11926;48.120;11.562;2023-03-12T09:03:35;6.70;90.20
23499;DHT22;11926;48.120;11.562;2023-03-12T09:06:22;6.70;90.20
23499;DHT22;11926;48.120;11.562;2023-03-12T09:09:10;6.70;90.30
23499;DHT22;11926;48.120;11.562;2023-03-12T09:11:58;6.90;90.50
23499;DHT22;11926;48.120;11.562;2023-03-12T09:14:46;7.00;90.50
23499;DHT22;11926;48.120;11.562;2023-03-12T09:17:52;7.10;91.00
23499;DHT22;11926;48.120;11.562;2023-03-12T09:20:41;7.20;90.60
23499;DHT22;11926;48.120;11.562;2023-03-12T09:23:29;7.30;90.50
23499;DHT22;11926;48.120;11.562;2023-03-12T09:26:17;7.30;90.40
23499;DHT22;11926;48.120;11.562;2023-03-12T09:29:06;7.30;90.20
23499;DHT22;11926;48.120;11.562;2023-03-12T09:31:53;7.30;90.10
23499;DHT22;11926;48.120;11.562;2023-03-12T09:34:41;7.30;90.20
23499;DHT22;11926;48.120;11.562;2023-03-12T09:37:28;7.30;90.20
23499;DHT22;11926;48.120;11.562;2023-03-12T09:40:19;7.30;90.20
23499;DHT22;11926;48.120;11.562;2023-03-12T09:43:15;7.30;90.30
23499;DHT22;11926;48.120;11.562;2023-03-12T09:46:11;7.30;90.20
23499;DHT22;11926;48.120;11.562;2023-03-12T09:49:04;7.30;90.20
23499;DHT22;11926;48.120;11.562;2023-03-12T09:51:54;7.20;90.10
23499;DHT22;11926;48.120;11.562;2023-03-12T09:54:46;7.10;90.10
23499;DHT22;11926;48.120;11.562;2023-03-12T09:57:39;6.90;90.20
23499;DHT22;11926;48.120;11.562;2023-03-12T10:00:30;6.90;90.40
23499;DHT22;11926;48.120;11.562;2023-03-12T10:03:33;6.90;90.50
23499;DHT22;11926;48.120;11.562;2023-03-12T10:06:28;6.90;90.40
23499;DHT22;11926;48.120;11.562;2023-03-12T10:12:49;7.00;90.30
23499;DHT22;11926;48.120;11.562;2023-03-12T10:16:05;6.90;90.30
23499;DHT22;11926;48.120;11.562;2023-03-12T10:19:07;6.90;90.40
23499;DHT22;11926;48.120;11.562;2023-03-12T10:22:00;6.90;90.60
23499;DHT22;11926;48.120;11.562;2023-03-12T10:24:58;6.90;90.70
23499;DHT22;11926;48.120;11.562;2023-03-12T10:27:47;7.00;90.70
23499;DHT22;11926;48.120;11.562;2023-03-12T10:30:35;6.90;90.70
23499;DHT22;11926;48.120;11.562;2023-03-12T10:33:37;6.90;90.90
23499;DHT22;11926;48.120;11.562;2023-03-12T10:36:32;6.90;90.70
23499;DHT22;11926;48.120;11.562;2023-03-12T10:39:22;6.80;90.70
23499;DHT22;11926;48.120;11.562;2023-03-12T10:42:15;6.70;90.80
23499;DHT22;11926;48.120;11.562;2023-03-12T10:45:27;6.70;91.00
23499;DHT22;11926;48.120;11.562;2023-03-12T10:48:22;6.70;90.90
23499;DHT22;11926;48.120;11.562;2023-03-12T10:51:11;6.60;91.00
23499;DHT22;11926;48.120;11.562;2023-03-12T10:54:20;6.60;91.00
23499;DHT22;11926;48.120;11.562;2023-03-12T10:57:08;6.70;91.00
23499;DHT22;11926;48.120;11.562;2023-03-12T11:00:05;6.70;91.10
23499;DHT22;11926;48.120;11.562;2023-03-12T11:02:59;6.70;91.00
23499;DHT22;11926;48.120;11.562;2023-03-12T11:05:51;6.80;91.00
23499;DHT22;11926;48.120;11.562;2023-03-12T11:08:39;6.80;91.10
23499;DHT22;11926;48.120;11.562;2023-03-12T11:11:32;6.80;91.10
23499;DHT22;11926;48.120;11.562;2023-03-12T11:14:22;6.90;91.30
23499;DHT22;11926;48.120;11.562;2023-03-12T11:17:20;7.00;91.40
23499;DHT22;11926;48.120;11.562;2023-03-12T11:20:24;7.10;91.50
23499;DHT22;11926;48.120;11.562;2023-03-12T11:23:12;7.20;91.40
23499;DHT22;11926;48.120;11.562;2023-03-12T11:26:02;7.20;91.30
23499;DHT22;11926;48.120;11.562;2023-03-12T11:28:55;7.30;91.40
23499;DHT22;11926;48.120;11.562;2023-03-12T11:31:55;7.50;91.40
23499;DHT22;11926;48.120;11.562;2023-03-12T11:34:45;7.70;91.40
23499;DHT22;11926;48.120;11.562;2023-03-12T11:37:43;7.80;91.40
23499;DHT22;11926;48.120;11.562;2023-03-12T11:40:48;7.90;91.10
23499;DHT22;11926;48.120;11.562;2023-03-12T11:43:53;7.90;91.10
23499;DHT22;11926;48.120;11.562;2023-03-12T11:46:51;7.90;91.20
23499;DHT22;11926;48.120;11.562;2023-03-12T11:49:53;8.00;91.30
23499;DHT22;11926;48.120;11.562;2023-03-12T11:52:58;8.20;91.50
23499;DHT22;11926;48.120;11.562;2023-03-12T11:55:58;8.30;91.30
23499;DHT22;11926;48.120;11.562;2023-03-12T11:58:59;8.30;91.20
23499;DHT22;11926;48.120;11.562;2023-03-12T12:01:58;8.40;91.40
23499;DHT22;11926;48.120;11.562;2023-03-12T12:05:17;8.50;91.40
23499;DHT22;11926;48.120;11.562;2023-03-12T12:08:24;8.60;91.40
23499;DHT22;11926;48.120;11.562;2023-03-12T12:11:19;8.60;91.40
23499;DHT22;11926;48.120;11.562;2023-03-12T12:14:16;8.70;91.30
23499;DHT22;11926;48.120;11.562;2023-03-12T12:17:13;8.80;91.40
23499;DHT22;11926;48.120;11.562;2023-03-12T12:20:17;8.80;91.40
23499;DHT22;11926;48.120;11.562;2023-03-12T12:23:15;8.90;91.50
23499;DHT22;11926;48.120;11.562;2023-03-12T12:26:07;9.00;91.60
23499;DHT22;11926;48.120;11.562;2023-03-12T12:29:04;9.10;91.60
23499;DHT22;11926;48.120;11.562;2023-03-12T12:32:01;9.10;91.60
23499;DHT22;11926;48.120;11.562;2023-03-12T12:34:58;9.20;91.70
23499;DHT22;11926;48.120;11.562;2023-03-12T12:37:52;9.20;91.80
23499;DHT22;11926;48.120;11.562;2023-03-12T12:40:46;9.30;91.80
23499;DHT22;11926;48.120;11.562;2023-03-12T12:43:37;9.30;91.90
23499;DHT22;11926;48.120;11.562;2023-03-12T12:46:29;9.30;91.90
23499;DHT22;11926;48.120;11.562;2023-03-12T12:49:21;9.40;92.00
23499;DHT22;11926;48.120;11.562;2023-03-12T12:52:12;9.50;92.10
23499;DHT22;11926;48.120;11.562;2023-03-12T12:55:09;9.50;92.00
23499;DHT22;11926;48.120;11.562;2023-03-12T12:58:01;9.50;92.10
23499;DHT22;11926;48.120;11.562;2023-03-12T13:00:51;9.40;92.20
23499;DHT22;11926;48.120;11.562;2023-03-12T13:03:40;9.40;92.40
23499;DHT22;11926;48.120;11.562;2023-03-12T13:06:59;9.50;92.40
23499;DHT22;11926;48.120;11.562;2023-03-12T13:09:48;9.50;92.40
23499;DHT22;11926;48.120;11.562;2023-03-12T13:12:46;9.50;92.70
23499;DHT22;11926;48.120;11.562;2023-03-12T13:15:37;9.60;92.70
23499;DHT22;11926;48.120;11.562;2023-03-12T13:18:28;9.80;92.80
23499;DHT22;11926;48.120;11.562;2023-03-12T13:21:23;9.90;93.30
23499;DHT22;11926;48.120;11.562;2023-03-12T13:24:21;10.10;93.00
23499;DHT22;11926;48.120;11.562;2023-03-12T13:27:15;10.20;92.90
23499;DHT22;11926;48.120;11.562;2023-03-12T13:36:19;10.50;92.70
23499;DHT22;11926;48.120;11.562;2023-03-12T13:39:28;10.50;93.00
23499;DHT22;11926;48.120;11.562;2023-03-12T13:42:35;10.60;92.80
23499;DHT22;11926;48.120;11.562;2023-03-12T13:45:26;10.70;92.80
23499;DHT22;11926;48.120;11.562;2023-03-12T13:48:17;10.90;92.80
23499;DHT22;11926;48.120;11.562;2023-03-12T13:51:13;10.90;92.70
23499;DHT22;11926;48.120;11.562;2023-03-12T13:54:03;11.10;92.70
23499;DHT22;11926;48.120;11.562;2023-03-12T13:56:58;11.20;92.60
23499;DHT22;11926;48.120;11.562;2023-03-12T13:59:49;11.30;92.40
23499;DHT22;11926;48.120;11.562;2023-03-12T14:02:43;11.30;92.10
23499;DHT22;11926;48.120;11.562;2023-03-12T14:05:42;11.20;92.10
23499;DHT22;11926;48.120;11.562;2023-03-12T14:08:49;11.20;92.20
23499;DHT22;11926;48.120;11.562;2023-03-12T14:11:50;11.10;92.20
23499;DHT22;11926;48.120;11.562;2023-03-12T14:14:55;11.10;92.40
23499;DHT22;11926;48.120;11.562;2023-03-12T14:17:54;11.10;92.40
23499;DHT22;11926;48.120;11.562;2023-03-12T14:20:52;11.20;92.50
23499;DHT22;11926;48.120;11.562;2023-03-12T14:23:47;11.40;92.40
23499;DHT22;11926;48.120;11.562;2023-03-12T14:26:36;11.50;92.40
23499;DHT22;11926;48.120;11.562;2023-03-12T14:29:29;11.70;92.30
23499;DHT22;11926;48.120;11.562;2023-03-12T14:32:26;11.80;92.00
23499;DHT22;11926;48.120;11.562;2023-03-12T14:35:16;11.90;92.10
23499;DHT22;11926;48.120;11.562;2023-03-12T14:38:14;12.00;92.10
23499;DHT22;11926;48.120;11.562;2023-03-12T14:41:06;12.20;91.40
23499;DHT22;11926;48.120;11.562;2023-03-12T14:44:04;12.30;91.00
23499;DHT22;11926;48.120;11.562;2023-03-12T14:46:58;12.40;90.70
23499;DHT22;11926;48.120;11.562;2023-03-12T14:49:47;12.40;90.30
23499;DHT22;11926;48.120;11.562;2023-03-12T14:52:35;12.50;90.20
23499;DHT22;11926;48.120;11.562;2023-03-12T14:55:24;12.40;89.70
23499;DHT22;11926;48.120;11.562;2023-03-12T14:58:16;12.40;89.00
23499;DHT22;11926;48.120;11.562;2023-03-12T15:01:06;12.20;88.90
23499;DHT22;11926;48.120;11.562;2023-03-12T15:04:02;12.00;88.90
23499;DHT22;11926;48.120;11.562;2023-03-12T15:06:55;11.90;89.20
23499;DHT22;11926;48.120;11.562;2023-03-12T15:09:47;11.90;89.40
23499;DHT22;11926;48.120;11.562;2023-03-12T15:12:37;11.80;89.40
23499;DHT22;11926;48.120;11.562;2023-03-12T15:15:31;11.80;89.20
23499;DHT22;11926;48.120;11.562;2023-03-12T15:18:25;11.80;89.20
23499;DHT22;11926;48.120;11.562;2023-03-12T15:21:16;11.80;89.10
23499;DHT22;11926;48.120;11.562;2023-03-12T15:24:08;11.80;89.00
23499;DHT22;11926;48.120;11.562;2023-03-12T15:27:18;11.70;89.40
23499;DHT22;11926;48.120;11.562;2023-03-12T15:30:22;11.70;89.00
23499;DHT22;11926;48.120;11.562;2023-03-12T15:33:20;11.70;89.00
23499;DHT22;11926;48.120;11.562;2023-03-12T15:36:26;11.60;89.00
23499;DHT22;11926;48.120;11.562;2023-03-12T15:39:23;11.50;88.80
23499;DHT22;11926;48.120;11.562;2023-03-12T15:42:16;11.50;89.00
23499;DHT22;11926;48.120;11.562;2023-03-12T15:45:17;11.50;88.90
23499;DHT22;11926;48.120;11.562;2023-03-12T15:48:17;11.50;88.40
23499;DHT22;11926;48.120;11.562;2023-03-12T15:51:12;11.50;88.30
23499;DHT22;11926;48.120;11.562;2023-03-12T15:54:02;11.50;88.40
23499;DHT22;11926;48.120;11.562;2023-03-12T15:56:52;11.40;88.40
23499;DHT22;11926;48.120;11.562;2023-03-12T15:59:40;11.40;88.40
23499;DHT22;11926;48.120;11.562;2023-03-12T16:02:37;11.40;88.60
23499;DHT22;11926;48.120;11.562;2023-03-12T16:05:29;11.40;88.60
23499;DHT22;11926;48.120;11.562;2023-03-12T16:08:19;11.40;88.50
23499;DHT22;11926;48.120;11.562;2023-03-12T16:11:14;11.40;88.60
23499;DHT22;11926;48.120;11.562;2023-03-12T16:14:09;11.40;88.80
23499;DHT22;11926;48.120;11.562;2023-03-12T16:16:59;11.30;88.80
23499;DHT22;11926;48.120;11.562;2023-03-12T16:19:47;11.30;88.90
23499;DHT22;11926;48.120;11.562;2023-03-12T16:22:35;11.30;89.00
23499;DHT22;11926;48.120;11.562;2023-03-12T16:25:23;11.30;89.00
23499;DHT22;11926;48.120;11.562;2023-03-12T16:28:14;11.20;89.20
23499;DHT22;11926;48.120;11.562;2023-03-12T16:31:11;11.20;89.40
23499;DHT22;11926;48.120;11.562;2023-03-12T16:33:58;11.20;89.30
23499;DHT22;11926;48.120;11.562;2023-03-12T16:36:47;11.10;89.00
23499;DHT22;11926;48.120;11.562;2023-03-12T16:39:35;11.10;88.80
23499;DHT22;11926;48.120;11.562;2023-03-12T16:42:23;11.10;88.60
23499;DHT22;11926;48.120;11.562;2023-03-12T16:45:12;11.00;88.50
23499;DHT22;11926;48.120;11.562;2023-03-12T16:48:04;10.90;88.80
23499;DHT22;11926;48.120;11.562;2023-03-12T16:50:55;10.90;88.70
23499;DHT22;11926;48.120;11.562;2023-03-12T16:53:44;10.80;88.70
23499;DHT22;11926;48.120;11.562;2023-03-12T16:56:42;10.70;88.60
23499;DHT22;11926;48.120;11.562;2023-03-12T16:59:31;10.70;88.70
23499;DHT22;11926;48.120;11.562;2023-03-12T17:02:23;10.70;88.70
23499;DHT22;11926;48.120;11.562;2023-03-12T17:05:14;10.70;88.70
23499;DHT22;11926;48.120;11.562;2023-03-12T17:08:02;10.60;88.50
23499;DHT22;11926;48.120;11.562;2023-03-12T17:10:50;10.60;88.60
23499;DHT22;11926;48.120;11.562;2023-03-12T17:13:39;10.60;88.70
23499;DHT22;11926;48.120;11.562;2023-03-12T17:16:27;10.50;88.70
23499;DHT22;11926;48.120;11.562;2023-03-12T17:19:15;10.40;88.70
23499;DHT22;11926;48.120;11.562;2023-03-12T17:22:04;10.30;88.80
23499;DHT22;11926;48.120;11.562;2023-03-12T17:24:52;10.20;89.10
23499;DHT22;11926;48.120;11.562;2023-03-12T17:27:40;10.10;89.40
23499;DHT22;11926;48.120;11.562;2023-03-12T17:30:29;9.90;89.60
23499;DHT22;11926;48.120;11.562;2023-03-12T17:33:18;9.90;90.00
23499;DHT22;11926;48.120;11.562;2023-03-12T17:36:08;9.80;90.10
23499;DHT22;11926;48.120;11.562;2023-03-12T17:38:58;9.70;90.20
23499;DHT22;11926;48.120;11.562;2023-03-12T17:41:46;9.60;90.30
23499;DHT22;11926;48.120;11.562;2023-03-12T17:44:35;9.60;90.40
23499;DHT22;11926;48.120;11.562;2023-03-12T17:47:24;9.50;90.50
23499;DHT22;11926;48.120;11.562;2023-03-12T17:50:16;9.50;90.60
23499;DHT22;11926;48.120;11.562;2023-03-12T17:53:04;9.50;90.60
23499;DHT22;11926;48.120;11.562;2023-03-12T17:55:53;9.60;90.60
23499;DHT22;11926;48.120;11.562;2023-03-12T17:58:41;9.50;90.60
23499;DHT22;11926;48.120;11.562;2023-03-12T18:01:29;9.50;90.60
23499;DHT22;11926;48.120;11.562;2023-03-12T18:04:17;9.50;90.60
23499;DHT22;11926;48.120;11.562;2023-03-12T18:07:06;9.40;90.60